Time;durP1;ratioP1;P1;durP2;ratioP2;P2;SDS_P1;SDS_P2;PMS_P1;PMS_P2;Temp;Humidity;BMP_temperature;BMP_pressure;BME280_temperature;BME280_humidity;BME280_pressure;Samples;Min_cycle;Max_cycle;Signal;HPM_P1;HPM_P2
2021/12/24 00:01:37;;;;;;;68.13;26.15;;;;;;;-0.59;98.71;97762.69;8431635;28;20481;-84
2021/12/24 00:05:38;;;;;;;75.88;31.38;;;;;;;-0.62;98.41;97752.59;8429111;28;20044;-82
2021/12/24 00:09:40;;;;;;;81.25;30.20;;;;;;;-0.62;98.86;97736.69;8430365;28;20079;-84
2021/12/24 00:13:44;;;;;;;79.40;31.38;;;;;;;-0.51;99.06;97727.66;8452899;27;20051;-83
2021/12/24 00:17:45;;;;;;;75.82;28.73;;;;;;;-0.56;99.43;97719.72;8462877;28;20047;-84
2021/12/24 00:39:06;;;;;;;82.00;29.75;;;;;;;-0.37;99.52;97705.88;8463625;28;20519;-82
2021/12/24 00:43:07;;;;;;;77.70;30.55;;;;;;;-0.37;99.90;97695.25;8463364;28;20057;-81
2021/12/24 00:47:08;;;;;;;79.75;30.95;;;;;;;-0.35;99.68;97704.53;8463168;28;20039;-81
2021/12/24 00:51:22;;;;;;;80.38;32.08;;;;;;;-0.17;99.92;97692.50;8463851;27;20601;-83
2021/12/24 00:55:27;;;;;;;76.78;30.80;;;;;;;-0.21;99.90;97691.47;8425178;28;20117;-83
2021/12/24 00:59:28;;;;;;;83.82;31.85;;;;;;;-0.13;100.00;97685.59;8408917;28;20067;-84
2021/12/24 01:03:29;;;;;;;66.57;28.70;;;;;;;-0.11;100.00;97684.25;8434008;28;20036;-83
2021/12/24 01:07:29;;;;;;;68.88;29.17;;;;;;;-0.06;100.00;97691.38;8358068;28;20128;-81
2021/12/24 01:11:31;;;;;;;66.05;27.23;;;;;;;-0.05;100.00;97677.03;8365464;28;20137;-81
2021/12/24 01:15:35;;;;;;;70.85;28.33;;;;;;;0.01;100.00;97665.31;8342445;28;20060;-82
2021/12/24 01:19:39;;;;;;;66.28;27.73;;;;;;;0.07;100.00;97658.91;8342267;28;20056;-82
2021/12/24 01:23:50;;;;;;;67.18;28.10;;;;;;;0.08;100.00;97676.44;8341001;28;20049;-80
2021/12/24 01:44:57;;;;;;;71.45;25.80;;;;;;;0.29;100.00;97635.38;8428103;28;20052;-83
2021/12/24 01:48:57;;;;;;;60.88;27.23;;;;;;;0.40;100.00;97631.59;8428301;28;20047;-82
2021/12/24 01:53:01;;;;;;;62.40;25.95;;;;;;;0.37;100.00;97629.47;8436916;28;20040;-82
2021/12/24 01:57:03;;;;;;;61.15;26.92;;;;;;;0.39;100.00;97619.38;8436447;28;20409;-83
2021/12/24 02:01:04;;;;;;;61.20;25.88;;;;;;;0.39;100.00;97618.56;8436924;28;20040;-83
2021/12/24 02:05:06;;;;;;;65.80;27.77;;;;;;;0.49;100.00;97617.69;8435831;28;20050;-82
2021/12/24 02:09:07;;;;;;;62.92;27.33;;;;;;;0.48;100.00;97608.16;8426928;28;20051;-84
2021/12/24 02:13:08;;;;;;;58.55;25.00;;;;;;;0.50;100.00;97608.66;8446440;28;20173;-83
2021/12/24 02:17:47;;;;;;;63.88;24.85;;;;;;;0.57;100.00;97599.31;8470369;28;20047;-83
2021/12/24 02:30:27;;;;;;;59.67;25.65;;;;;;;0.77;100.00;97592.97;8462942;28;20481;-81
2021/12/24 02:34:28;;;;;;;62.42;25.60;;;;;;;0.79;100.00;97590.84;8461495;28;20047;-80
2021/12/24 02:38:29;;;;;;;66.55;27.98;;;;;;;0.84;100.00;97577.50;8463440;28;20122;-82
2021/12/24 02:42:30;;;;;;;60.15;23.80;;;;;;;0.79;100.00;97590.84;8461755;28;20039;-83
2021/12/24 02:46:40;;;;;;;52.88;24.67;;;;;;;0.84;100.00;97588.13;8463522;27;20074;-82
2021/12/24 02:55:01;;;;;;;55.30;25.55;;;;;;;0.81;100.00;97583.38;8465154;27;20420;-81
2021/12/24 02:59:06;;;;;;;55.30;25.45;;;;;;;0.86;100.00;97585.97;8478880;27;20427;-81
2021/12/24 03:03:06;;;;;;;54.95;23.63;;;;;;;0.91;100.00;97567.31;8464530;27;20120;-83
2021/12/24 03:07:07;;;;;;;56.55;25.33;;;;;;;0.89;100.00;97569.47;8463916;28;20119;-83
2021/12/24 03:11:08;;;;;;;53.22;21.30;;;;;;;0.85;100.00;97573.75;8465053;27;20075;-83
2021/12/24 03:15:11;;;;;;;55.72;26.40;;;;;;;0.85;100.00;97563.13;8466506;27;20122;-83
2021/12/24 03:19:13;;;;;;;60.30;25.85;;;;;;;0.90;100.00;97560.41;8464877;28;20057;-83
2021/12/24 03:23:33;;;;;;;58.45;26.58;;;;;;;0.88;100.00;97546.63;8464750;28;20415;-82
2021/12/24 03:27:34;;;;;;;60.58;26.80;;;;;;;0.87;100.00;97566.28;8435322;28;20137;-81
2021/12/24 03:31:37;;;;;;;63.38;27.55;;;;;;;0.90;100.00;97559.63;8427751;27;20060;-83
2021/12/24 03:35:38;;;;;;;62.00;26.80;;;;;;;0.89;100.00;97548.22;8463025;27;20100;-84
2021/12/24 03:39:39;;;;;;;60.08;26.75;;;;;;;0.93;100.00;97543.91;8444931;27;20138;-84
2021/12/24 03:43:40;;;;;;;53.83;23.45;;;;;;;1.06;100.00;97543.19;8462970;27;20052;-81
2021/12/24 03:47:42;;;;;;;53.00;24.65;;;;;;;1.12;100.00;97536.75;8463293;27;20093;-80
2021/12/24 03:51:55;;;;;;;51.58;24.30;;;;;;;1.25;100.00;97536.06;8460881;27;20092;-80
2021/12/24 03:55:56;;;;;;;56.30;22.35;;;;;;;1.26;100.00;97526.22;8479046;27;20542;-80
2021/12/24 04:00:05;;;;;;;49.92;22.88;;;;;;;1.32;100.00;97537.56;8463327;28;20063;-80
2021/12/24 04:04:06;;;;;;;46.78;22.67;;;;;;;1.38;100.00;97528.41;8462885;27;20048;-82
2021/12/24 04:08:07;;;;;;;49.50;22.05;;;;;;;1.40;100.00;97526.28;8454009;27;20089;-81
2021/12/24 04:12:08;;;;;;;48.30;21.27;;;;;;;1.39;100.00;97519.38;8438922;27;20063;-81
2021/12/24 04:16:09;;;;;;;47.60;21.23;;;;;;;1.40;100.00;97526.28;8465158;27;20116;-81
2021/12/24 04:28:50;;;;;;;42.25;19.55;;;;;;;1.43;100.00;97520.41;8448819;28;20379;-82
2021/12/24 05:02:45;;;;;;;42.15;19.27;;;;;;;1.54;100.00;97532.44;8451597;27;20044;-81
2021/12/24 05:06:52;;;;;;;36.42;18.10;;;;;;;1.55;100.00;97534.03;8462794;28;20472;-81
2021/12/24 05:10:53;;;;;;;40.22;18.95;;;;;;;1.59;100.00;97524.38;8448296;27;20062;-82
2021/12/24 05:14:54;;;;;;;39.80;19.58;;;;;;;1.62;100.00;97523.84;8448629;28;20130;-82
2021/12/24 05:23:22;;;;;;;37.35;17.98;;;;;;;1.77;100.00;97520.94;8344912;28;20056;-82
2021/12/24 05:27:23;;;;;;;34.03;17.85;;;;;;;1.74;100.00;97516.19;8374378;28;20057;-80
2021/12/24 05:31:24;;;;;;;35.28;17.80;;;;;;;1.79;100.00;97529.44;8341496;28;20049;-82
2021/12/24 05:35:25;;;;;;;41.42;19.15;;;;;;;1.83;100.00;97519.78;8341224;28;20188;-81
2021/12/24 05:39:26;;;;;;;35.92;17.50;;;;;;;1.85;100.00;97512.28;8357887;28;20128;-80
2021/12/24 05:43:27;;;;;;;35.53;17.38;;;;;;;1.89;100.00;97507.97;8356757;28;20041;-81
2021/12/24 05:47:27;;;;;;;34.10;16.75;;;;;;;1.88;100.00;97510.91;8356692;28;20060;-81
2021/12/24 05:51:29;;;;;;;33.45;16.80;;;;;;;1.93;100.00;97500.97;8340916;28;20379;-80
2021/12/24 05:55:29;;;;;;;32.88;16.38;;;;;;;1.99;100.00;97491.81;8341088;28;20049;-81
2021/12/24 05:59:30;;;;;;;33.17;16.75;;;;;;;1.99;100.00;97497.16;8396335;28;20044;-80
2021/12/24 06:03:31;;;;;;;34.50;17.65;;;;;;;2.02;100.00;97488.56;8470091;28;20051;-81
2021/12/24 06:07:32;;;;;;;32.17;16.23;;;;;;;2.05;100.00;97484.53;8469594;27;20752;-80
2021/12/24 06:11:32;;;;;;;33.95;17.77;;;;;;;2.17;100.00;97486.75;8443484;28;20058;-80
2021/12/24 06:15:42;;;;;;;33.63;16.30;;;;;;;2.21;100.00;97477.06;8461777;28;20393;-80
2021/12/24 06:19:43;;;;;;;28.17;15.07;;;;;;;2.16;100.00;97485.16;8445667;28;20382;-82
2021/12/24 06:23:46;;;;;;;34.10;17.35;;;;;;;2.15;100.00;97462.28;8468641;27;20051;-80
2021/12/24 06:27:47;;;;;;;33.55;15.85;;;;;;;2.16;100.00;97485.16;8476270;27;20051;-79
2021/12/24 06:31:49;;;;;;;31.48;16.17;;;;;;;2.23;100.00;97472.22;8458059;27;20468;-80
2021/12/24 06:35:53;;;;;;;30.33;15.65;;;;;;;2.25;100.00;97478.84;8474980;27;20062;-81
2021/12/24 06:39:55;;;;;;;29.05;15.07;;;;;;;2.26;100.00;97474.31;8441654;27;20055;-82
2021/12/24 06:43:56;;;;;;;29.38;15.98;;;;;;;2.31;100.00;97482.22;8467607;27;20044;-81
2021/12/24 06:47:58;;;;;;;31.70;16.38;;;;;;;2.32;100.00;97491.78;8467345;27;20050;-81
2021/12/24 06:51:59;;;;;;;26.20;13.40;;;;;;;2.30;100.00;97480.63;8449302;28;20134;-79
2021/12/24 06:56:00;;;;;;;29.70;15.52;;;;;;;2.34;100.00;97476.28;8467511;27;20048;-80
2021/12/24 07:00:03;;;;;;;30.92;15.50;;;;;;;2.34;100.00;97481.63;8446770;27;20134;-81
2021/12/24 07:04:04;;;;;;;33.25;17.10;;;;;;;2.37;100.00;97481.03;8448217;27;20088;-80
2021/12/24 07:08:05;;;;;;;40.38;19.42;;;;;;;2.33;100.00;97490.69;8447300;27;20571;-81
2021/12/24 07:12:06;;;;;;;45.83;21.83;;;;;;;2.32;100.00;97494.47;8447445;27;20086;-81
2021/12/24 07:16:07;;;;;;;44.97;21.90;;;;;;;2.25;100.00;97494.03;8448887;28;20055;-80
2021/12/24 07:20:08;;;;;;;50.65;24.08;;;;;;;2.24;100.00;97487.13;8465745;27;20051;-81
2021/12/24 07:24:09;;;;;;;52.00;23.20;;;;;;;2.23;100.00;97490.88;8431713;28;20564;-81
2021/12/24 07:28:10;;;;;;;55.28;23.08;;;;;;;2.29;100.00;97495.81;8453241;28;20063;-81
2021/12/24 07:32:11;;;;;;;58.90;25.48;;;;;;;2.30;100.00;97502.75;8436585;28;20077;-82
2021/12/24 07:36:12;;;;;;;53.00;22.55;;;;;;;2.30;100.00;97485.97;8453220;28;20079;-84
2021/12/24 07:40:16;;;;;;;57.83;23.95;;;;;;;2.28;100.00;97485.44;8460854;28;20058;-81
2021/12/24 07:44:18;;;;;;;53.58;22.65;;;;;;;2.30;100.00;97480.63;8446503;28;20041;-80
2021/12/24 07:48:27;;;;;;;47.58;22.25;;;;;;;2.31;100.00;97476.88;8434824;28;20070;-81
2021/12/24 07:52:28;;;;;;;56.13;23.98;;;;;;;2.31;100.00;97477.69;8442948;28;20066;-81
2021/12/24 07:56:31;;;;;;;52.90;21.45;;;;;;;2.32;100.00;97486.47;8433562;28;20040;-81
2021/12/24 08:00:32;;;;;;;56.55;24.17;;;;;;;2.35;100.00;97488.53;8447147;27;20040;-82
2021/12/24 08:04:33;;;;;;;53.42;24.08;;;;;;;2.39;100.00;97473.53;8446617;28;20463;-79
2021/12/24 08:08:34;;;;;;;48.55;21.00;;;;;;;2.35;100.00;97461.91;8467389;27;20049;-80
2021/12/24 08:12:34;;;;;;;45.00;21.58;;;;;;;2.34;100.00;97465.63;8449387;27;20130;-82
2021/12/24 08:16:36;;;;;;;50.10;22.10;;;;;;;2.37;100.00;97465.06;8465058;27;20390;-82
2021/12/24 08:20:37;;;;;;;49.47;21.92;;;;;;;2.43;100.00;97453.22;8429847;28;20055;-82
2021/12/24 08:24:39;;;;;;;48.88;22.30;;;;;;;2.44;100.00;97454.78;8436197;28;20059;-83
2021/12/24 08:28:39;;;;;;;50.65;22.10;;;;;;;2.43;100.00;97447.91;8455152;27;20043;-84
2021/12/24 08:32:42;;;;;;;50.80;22.52;;;;;;;2.50;100.00;97437.63;8445057;27;20047;-80
2021/12/24 08:36:42;;;;;;;57.30;24.02;;;;;;;2.52;100.00;97438.13;8462988;28;20048;-81
2021/12/24 08:40:43;;;;;;;60.20;25.38;;;;;;;2.57;100.00;97432.69;8447039;27;20039;-81
2021/12/24 08:44:44;;;;;;;63.78;26.85;;;;;;;2.62;100.00;97429.91;8473629;27;20048;-81
2021/12/24 08:48:45;;;;;;;59.28;26.05;;;;;;;2.63;100.00;97431.50;8445604;28;20473;-81
2021/12/24 08:52:46;;;;;;;51.80;24.02;;;;;;;2.73;100.00;97425.97;8463248;28;20143;-81
2021/12/24 08:56:48;;;;;;;44.03;22.60;;;;;;;2.77;100.00;97421.59;8463139;28;20476;-80
2021/12/24 09:00:49;;;;;;;43.30;21.33;;;;;;;2.87;100.00;97432.06;8445182;28;20032;-79
2021/12/24 09:04:50;;;;;;;45.90;22.77;;;;;;;2.90;100.00;97436.81;8463232;27;20468;-82
2021/12/24 09:08:51;;;;;;;45.30;22.17;;;;;;;2.89;100.00;97440.56;8451128;27;20138;-80
2021/12/24 09:12:52;;;;;;;50.85;24.50;;;;;;;2.92;100.00;97439.94;8444944;28;20044;-81
2021/12/24 09:16:53;;;;;;;54.22;24.98;;;;;;;3.02;100.00;97438.13;8461042;28;20484;-80
2021/12/24 09:20:59;;;;;;;62.28;27.85;;;;;;;2.96;100.00;97435.59;8461416;28;20149;-82
2021/12/24 09:25:00;;;;;;;75.15;29.88;;;;;;;2.96;100.00;97435.59;8462191;27;20404;-83
2021/12/24 09:29:03;;;;;;;63.10;26.10;;;;;;;2.96;100.00;97430.25;8443625;28;20040;-82
2021/12/24 09:33:05;;;;;;;56.78;24.88;;;;;;;2.97;100.00;97431.03;8461208;28;20047;-83
2021/12/24 09:37:06;;;;;;;50.70;22.83;;;;;;;3.02;100.00;97427.47;8442810;27;20047;-81
2021/12/24 09:41:07;;;;;;;55.38;21.70;;;;;;;3.03;100.00;97415.72;8442952;28;20043;-85
2021/12/24 09:45:09;;;;;;;41.85;20.05;;;;;;;3.05;100.00;97405.56;8460525;28;20122;-84
2021/12/24 09:49:12;;;;;;;38.20;17.85;;;;;;;3.12;100.00;97397.94;8468413;27;20167;-83
2021/12/24 09:53:13;;;;;;;42.47;19.70;;;;;;;3.19;100.00;97395.63;8442570;28;20401;-83
2021/12/24 09:57:14;;;;;;;35.50;16.98;;;;;;;3.31;100.00;97388.66;8465616;27;20485;-82
2021/12/24 10:01:32;;;;;;;35.05;15.63;;;;;;;3.33;100.00;97391.03;8453408;27;20055;-82
2021/12/24 10:05:39;;;;;;;35.13;15.73;;;;;;;3.45;100.00;97382.47;8469347;27;20132;-82
2021/12/24 10:09:49;;;;;;;35.45;16.10;;;;;;;3.42;100.00;97373.19;8468329;27;20104;-82
2021/12/24 10:13:54;;;;;;;31.35;14.10;;;;;;;3.47;100.00;97370.41;8454492;27;20115;-80
2021/12/24 10:17:55;;;;;;;26.88;14.27;;;;;;;3.63;100.00;97366.25;8473118;27;20066;-81
2021/12/24 10:22:01;;;;;;;21.15;11.63;;;;;;;3.80;100.00;97358.34;8468598;28;20114;-85
2021/12/24 10:26:13;;;;;;;19.73;11.43;;;;;;;3.97;100.00;97351.50;8455833;27;20039;-80
2021/12/24 10:30:22;;;;;;;21.88;11.88;;;;;;;3.96;100.00;97361.41;8467359;27;20065;-82
2021/12/24 10:34:31;;;;;;;20.98;10.85;;;;;;;4.05;100.00;97342.75;8466698;28;20051;-79
2021/12/24 10:38:32;;;;;;;;;;;;;;;4.22;100.00;97343.59;8449248;27;20555;-77
2021/12/24 10:42:38;;;;;;;17.95;9.88;;;;;;;4.18;100.00;97352.50;8433685;27;19927;-80
2021/12/24 10:46:39;;;;;;;16.42;9.60;;;;;;;4.14;100.00;97338.19;8411153;27;20048;-82
2021/12/24 10:50:49;;;;;;;20.63;9.15;;;;;;;4.11;100.00;97346.84;8467446;27;20081;-81
2021/12/24 10:55:09;;;;;;;15.23;8.65;;;;;;;4.10;100.00;97334.59;8466719;27;20693;-81
2021/12/24 10:59:10;;;;;;;20.17;9.75;;;;;;;4.07;100.00;97341.31;8386820;28;20121;-81
2021/12/24 11:03:21;;;;;;;22.65;10.88;;;;;;;4.16;100.00;97338.69;8364577;28;20060;-81
2021/12/24 11:07:36;;;;;;;22.20;12.20;;;;;;;4.15;100.00;97331.78;8379154;28;20040;-81
2021/12/24 11:11:38;;;;;;;28.50;14.05;;;;;;;4.19;100.00;97322.81;8385059;28;20061;-82
2021/12/24 11:15:40;;;;;;;28.60;14.00;;;;;;;4.31;100.00;97316.88;8313332;28;20574;-81
2021/12/24 11:19:50;;;;;;;19.55;10.40;;;;;;;4.41;100.00;97313.91;8312569;28;20141;-80
2021/12/24 11:23:51;;;;;;;19.63;11.07;;;;;;;4.53;100.00;97311.44;8343246;28;20099;-79
2021/12/24 11:27:53;;;;;;;18.67;10.15;;;;;;;4.72;100.00;97318.34;8328532;28;20731;-76
2021/12/24 11:31:54;;;;;;;18.25;10.55;;;;;;;4.82;100.00;97307.34;8332877;28;20190;-77
2021/12/24 11:35:56;;;;;;;24.52;10.82;;;;;;;4.87;100.00;97315.19;8307028;28;20049;-75
2021/12/24 11:39:58;;;;;;;23.13;11.48;;;;;;;4.93;100.00;97308.59;8332334;28;20041;-75
2021/12/24 11:44:05;;;;;;;19.75;11.35;;;;;;;4.94;100.00;97299.47;8317841;28;20462;-75
2021/12/24 11:48:06;;;;;;;21.70;11.30;;;;;;;4.94;100.00;97283.44;8323466;28;20635;-76
2021/12/24 11:52:08;;;;;;;18.45;11.02;;;;;;;5.09;100.00;97280.25;8359017;28;20084;-77
2021/12/24 11:56:12;;;;;;;17.55;10.02;;;;;;;5.13;100.00;97291.91;8369388;28;20076;-79
2021/12/24 12:00:21;;;;;;;20.05;11.13;;;;;;;5.13;100.00;97283.88;8398782;27;20043;-76
2021/12/24 12:04:23;;;;;;;19.30;11.27;;;;;;;5.21;100.00;97272.38;8426834;28;20051;-78
2021/12/24 12:08:27;;;;;;;20.10;11.38;;;;;;;5.20;100.00;97260.09;8459759;28;20043;-80
2021/12/24 12:12:37;;;;;;;22.35;10.90;;;;;;;5.21;100.00;97261.69;8437016;27;20059;-77
2021/12/24 12:16:41;;;;;;;18.95;9.23;;;;;;;5.24;100.00;97261.03;8441071;28;20108;-81
2021/12/24 12:20:48;;;;;;;18.98;8.70;;;;;;;5.25;100.00;97262.59;8462942;27;20048;-79
2021/12/24 12:24:59;;;;;;;18.30;10.07;;;;;;;5.31;100.00;97255.97;8464113;28;20035;-77
2021/12/24 12:29:19;;;;;;;20.75;10.25;;;;;;;5.38;100.00;97240.22;8442601;27;20098;-80
2021/12/24 12:33:36;;;;;;;22.98;9.38;;;;;;;5.39;100.00;97246.38;8459243;27;20045;-78
2021/12/24 12:37:49;;;;;;;19.55;8.82;;;;;;;5.43;100.00;97242.72;8443248;28;20400;-77
2021/12/24 12:41:50;;;;;;;17.25;8.23;;;;;;;5.52;100.00;97240.78;8456389;27;20057;-78
2021/12/24 12:45:56;;;;;;;17.38;8.73;;;;;;;5.66;100.00;97251.28;8455376;28;20109;-79
2021/12/24 12:50:24;;;;;;;15.70;8.70;;;;;;;5.58;100.00;97232.59;8457698;27;20039;-77
2021/12/24 12:54:41;;;;;;;14.23;6.90;;;;;;;5.66;100.00;97237.13;8471834;27;20513;-80
2021/12/24 12:58:47;;;;;;;13.65;7.53;;;;;;;5.68;100.00;97232.22;8464285;27;20138;-77
2021/12/24 13:03:07;;;;;;;16.17;8.32;;;;;;;5.75;100.00;97232.53;8444879;28;20115;-77
2021/12/24 13:07:09;;;;;;;16.45;10.05;;;;;;;5.86;100.00;97234.53;8430929;27;20058;-79
2021/12/24 13:11:17;;;;;;;15.57;8.65;;;;;;;6.02;100.00;97226.75;8470329;27;20047;-76
2021/12/24 13:15:18;;;;;;;15.07;7.13;;;;;;;6.05;100.00;97231.44;8444773;28;20484;-76
2021/12/24 13:19:54;;;;;;;14.20;6.18;;;;;;;6.14;100.00;97240.19;8418372;28;20139;-80
2021/12/24 13:23:52;;;;;;;14.57;7.15;;;;;;;6.19;100.00;97225.81;8458391;28;20480;-81
2021/12/24 13:27:54;;;;;;;12.50;6.60;;;;;;;6.23;100.00;97254.34;8465988;27;20048;-86
2021/12/24 13:31:56;;;;;;;13.35;6.63;;;;;;;6.31;100.00;97234.75;8426620;27;20525;-76
2021/12/24 13:35:57;;;;;;;11.82;6.65;;;;;;;6.41;100.00;97227.41;8461865;27;20139;-80
2021/12/24 13:39:58;;;;;;;13.45;6.95;;;;;;;6.43;100.00;97225.19;8440586;28;20385;-77
2021/12/24 13:43:59;;;;;;;14.57;7.00;;;;;;;6.39;100.00;97224.28;8443547;27;20055;-80
2021/12/24 13:48:08;;;;;;;14.35;6.72;;;;;;;6.40;100.00;97231.97;8443543;28;20079;-82
2021/12/24 13:56:37;;;;;;;10.77;5.07;;;;;;;6.48;100.00;97216.97;8460259;28;20714;-83
2021/12/24 14:00:46;;;;;;;12.05;6.55;;;;;;;6.64;100.00;97223.28;8448899;28;20560;-82
2021/12/24 14:04:58;;;;;;;13.48;5.50;;;;;;;6.61;100.00;97223.97;8457598;28;20054;-83
2021/12/24 14:09:30;;;;;;;9.93;5.18;;;;;;;6.57;100.00;97228.41;8451851;28;20643;-82
2021/12/24 14:13:35;;;;;;;11.82;5.78;;;;;;;6.70;100.00;97227.34;8455327;28;20048;-79
2021/12/24 14:18:03;;;;;;;18.15;6.75;;;;;;;6.70;100.00;97227.34;8434330;28;20063;-82
2021/12/24 14:22:10;;;;;;;10.75;5.65;;;;;;;6.66;100.00;97218.41;8457296;28;20047;-84
2021/12/24 14:26:11;;;;;;;14.88;6.00;;;;;;;6.70;100.00;97213.94;8456219;28;20051;-76
2021/12/24 14:30:20;;;;;;;11.90;4.75;;;;;;;6.76;99.61;97228.72;8462389;28;20055;-83
2021/12/24 14:34:34;;;;;;;13.15;4.97;;;;;;;6.77;99.21;97219.53;8442077;28;20039;-87
2021/12/24 14:38:35;;;;;;;12.50;5.78;;;;;;;6.85;97.91;97213.31;8451500;28;20077;-81
2021/12/24 14:42:36;;;;;;;5.65;3.28;;;;;;;6.83;97.70;97234.31;8462617;27;20065;-83
2021/12/24 14:46:36;;;;;;;12.40;5.40;;;;;;;6.87;97.29;97223.75;8462538;27;20055;-80
2021/12/24 14:50:46;;;;;;;8.25;4.35;;;;;;;6.88;96.95;97231.44;8463750;27;20504;-80
2021/12/24 14:55:21;;;;;;;7.13;3.58;;;;;;;6.80;97.76;97224.25;8444497;28;20089;-82
2021/12/24 14:59:22;;;;;;;9.40;5.28;;;;;;;6.57;99.81;97236.44;8258234;28;20057;-78
2021/12/24 15:03:30;;;;;;;8.05;4.60;;;;;;;6.34;100.00;97212.63;8254434;28;20729;-77
2021/12/24 15:07:31;;;;;;;10.55;4.20;;;;;;;6.30;100.00;97254.59;8239982;28;20411;-79
2021/12/24 15:11:33;;;;;;;6.55;3.33;;;;;;;6.10;100.00;97276.81;8262518;28;20050;-78
2021/12/24 15:15:34;;;;;;;3.83;2.22;;;;;;;5.87;100.00;97278.16;8257069;28;20507;-78
2021/12/24 15:19:35;;;;;;;5.80;2.88;;;;;;;5.53;100.00;97285.22;8245999;28;20101;-80
2021/12/24 15:23:35;;;;;;;5.22;2.67;;;;;;;5.24;100.00;97295.81;8230640;28;20624;-80
2021/12/24 15:27:38;;;;;;;5.32;3.10;;;;;;;5.13;100.00;97307.94;8263962;28;20073;-78
2021/12/24 15:31:39;;;;;;;4.38;2.67;;;;;;;4.92;100.00;97323.06;8310039;28;20095;-79
2021/12/24 15:35:40;;;;;;;11.07;4.05;;;;;;;4.92;100.00;97323.84;8401795;28;20481;-80
2021/12/24 15:39:41;;;;;;;7.95;4.35;;;;;;;4.79;100.00;97329.38;8446194;27;20493;-80
2021/12/24 15:43:43;;;;;;;7.35;3.30;;;;;;;4.73;100.00;97330.63;8445199;27;20114;-79
2021/12/24 15:47:44;;;;;;;8.38;4.18;;;;;;;4.62;100.00;97344.31;8445776;27;20056;-78
2021/12/24 15:51:45;;;;;;;8.27;4.57;;;;;;;4.47;100.00;97339.41;8466417;27;20478;-80
2021/12/24 15:55:47;;;;;;;10.95;5.18;;;;;;;4.36;100.00;97354.16;8447515;27;20400;-80
2021/12/24 15:59:48;;;;;;;10.93;5.03;;;;;;;4.30;100.00;97366.06;8412051;27;20131;-79
2021/12/24 16:03:49;;;;;;;12.98;5.68;;;;;;;4.27;100.00;97377.41;8480713;27;20052;-77
2021/12/24 16:07:50;;;;;;;11.55;5.97;;;;;;;4.10;100.00;97366.63;8464863;27;20093;-79
2021/12/24 16:11:51;;;;;;;9.57;5.68;;;;;;;4.11;100.00;97373.56;8455822;27;20064;-80
2021/12/24 16:15:52;;;;;;;11.85;5.40;;;;;;;4.00;100.00;97393.63;8470667;27;20058;-79
2021/12/24 16:19:53;;;;;;;7.25;4.72;;;;;;;4.01;100.00;97411.22;8475653;27;20035;-80
2021/12/24 16:23:54;;;;;;;12.32;5.60;;;;;;;3.91;100.00;97398.16;8466217;27;20096;-80
2021/12/24 16:27:55;;;;;;;12.52;5.43;;;;;;;3.78;100.00;97402.47;8478110;27;20117;-78
2021/12/24 16:31:56;;;;;;;11.43;4.63;;;;;;;3.64;100.00;97426.56;8472247;27;20688;-80
2021/12/24 16:35:57;;;;;;;11.65;4.57;;;;;;;3.55;100.00;97452.41;8462225;27;20139;-80
2021/12/24 16:39:58;;;;;;;7.70;4.28;;;;;;;3.38;100.00;97458.38;8463619;27;20047;-79
2021/12/24 16:43:58;;;;;;;8.10;4.18;;;;;;;3.31;100.00;97457.25;8452688;27;20115;-81
2021/12/24 16:48:02;;;;;;;9.98;4.75;;;;;;;3.05;100.00;97458.88;8461722;27;20046;-79
2021/12/24 16:52:05;;;;;;;9.20;4.10;;;;;;;2.90;99.57;97458.13;8459661;27;20591;-80
2021/12/24 16:56:05;;;;;;;6.25;3.60;;;;;;;2.82;99.81;97472.16;8418963;28;20052;-81
2021/12/24 17:00:09;;;;;;;9.27;4.78;;;;;;;2.71;99.62;97486.78;8433309;28;20481;-82
2021/12/24 17:04:10;;;;;;;4.85;2.78;;;;;;;2.60;98.57;97474.72;8461701;28;20130;-85
2021/12/24 17:08:11;;;;;;;8.07;2.70;;;;;;;2.40;97.97;97497.22;8444489;28;20043;-79
2021/12/24 17:12:14;;;;;;;8.55;2.50;;;;;;;2.36;95.05;97485.59;8465950;27;20407;-78
2021/12/24 17:16:14;;;;;;;6.25;3.00;;;;;;;2.07;95.73;97504.47;8463284;27;20105;-79
2021/12/24 17:20:17;;;;;;;5.88;2.42;;;;;;;1.94;96.43;97499.91;8472451;27;20496;-78
2021/12/24 17:24:18;;;;;;;4.80;2.45;;;;;;;1.86;96.39;97513.88;8470268;27;20497;-80
2021/12/24 17:28:19;;;;;;;6.28;2.53;;;;;;;1.79;96.40;97497.50;8462679;27;20071;-79
2021/12/24 17:32:21;;;;;;;5.10;2.42;;;;;;;1.69;96.59;97518.94;8450638;27;20051;-80
2021/12/24 17:36:21;;;;;;;7.28;2.85;;;;;;;1.60;96.43;97544.59;8464573;28;20138;-80
2021/12/24 17:40:22;;;;;;;8.27;3.35;;;;;;;1.44;96.95;97535.25;8477631;27;20090;-79
2021/12/24 17:44:23;;;;;;;6.65;3.15;;;;;;;1.44;95.89;97559.19;8443669;28;20092;-80
2021/12/24 17:48:24;;;;;;;10.13;3.78;;;;;;;1.35;95.90;97571.56;8470245;27;20042;-80
2021/12/24 17:52:25;;;;;;;8.40;3.83;;;;;;;1.31;96.28;97565.25;8444904;27;20508;-78
2021/12/24 17:56:26;;;;;;;8.13;3.97;;;;;;;1.33;96.71;97569.19;8426379;28;20437;-78
2021/12/24 18:00:27;;;;;;;8.20;4.65;;;;;;;1.24;96.72;97577.00;8463643;28;20084;-78
2021/12/24 18:04:28;;;;;;;8.68;4.78;;;;;;;1.25;96.27;97575.94;8469805;28;20044;-78
2021/12/24 18:08:29;;;;;;;9.55;4.65;;;;;;;1.19;96.23;97579.75;8462025;28;20036;-79
2021/12/24 18:12:31;;;;;;;9.95;5.05;;;;;;;1.14;96.43;97603.72;8443149;28;20040;-81
2021/12/24 18:16:32;;;;;;;13.18;5.97;;;;;;;1.10;96.37;97613.34;8477145;27;20737;-80
2021/12/24 18:20:34;;;;;;;13.30;5.97;;;;;;;1.18;95.81;97610.06;8474315;27;20047;-79
2021/12/24 18:24:35;;;;;;;9.88;6.13;;;;;;;1.14;96.03;97587.78;8439173;27;20464;-81
2021/12/24 18:28:36;;;;;;;10.90;5.60;;;;;;;1.13;96.22;97623.41;8471629;27;20044;-80
2021/12/24 18:32:37;;;;;;;10.57;6.03;;;;;;;1.08;96.38;97626.13;8467358;27;20127;-80
2021/12/24 18:36:38;;;;;;;9.20;6.30;;;;;;;1.11;96.93;97644.16;8467905;27;20047;-83
2021/12/24 18:40:42;;;;;;;12.00;6.80;;;;;;;1.09;96.83;97633.03;8448047;27;20050;-83
2021/12/24 18:44:43;;;;;;;12.02;6.55;;;;;;;1.04;97.05;97662.34;8468436;27;20400;-80
2021/12/24 18:48:44;;;;;;;11.32;6.35;;;;;;;1.08;97.11;97679.31;8448755;28;20058;-80
2021/12/24 18:52:45;;;;;;;371.77;109.97;;;;;;;1.07;96.79;97683.03;8466777;27;20509;-80
2021/12/24 18:56:47;;;;;;;34.40;24.10;;;;;;;1.08;96.06;97684.63;8468572;27;20051;-78
2021/12/24 19:00:49;;;;;;;11.95;6.40;;;;;;;1.06;96.04;97691.28;8474626;27;20047;-80
2021/12/24 19:04:50;;;;;;;11.38;6.57;;;;;;;1.06;96.47;97697.38;8474707;27;20126;-81
2021/12/24 19:08:52;;;;;;;13.05;7.60;;;;;;;1.03;96.27;97713.91;8471358;27;20055;-80
2021/12/24 19:12:54;;;;;;;12.00;5.82;;;;;;;0.97;96.40;97714.25;8474363;27;20047;-79
2021/12/24 19:16:55;;;;;;;12.52;7.22;;;;;;;0.97;96.66;97725.66;8477314;27;20036;-81
2021/12/24 19:20:56;;;;;;;13.77;6.30;;;;;;;1.02;96.21;97717.63;8463881;27;20074;-80
2021/12/24 19:24:57;;;;;;;9.82;6.18;;;;;;;1.01;96.33;97732.00;8464681;27;20547;-81
2021/12/24 19:29:00;;;;;;;14.85;9.45;;;;;;;1.05;96.10;97759.63;8449127;27;20055;-80
2021/12/24 19:33:04;;;;;;;10.82;6.95;;;;;;;0.98;96.20;97743.19;8389316;28;20056;-80
2021/12/24 19:37:04;;;;;;;16.65;8.45;;;;;;;0.98;96.05;97764.47;8367470;28;20419;-80
2021/12/24 19:41:07;;;;;;;11.38;6.82;;;;;;;0.90;96.42;97773.03;8384073;28;20037;-79
2021/12/24 19:45:08;;;;;;;11.65;6.97;;;;;;;0.91;96.50;97774.63;8387067;28;20140;-79
2021/12/24 19:49:09;;;;;;;11.82;7.07;;;;;;;0.89;96.57;97787.41;8392916;28;20056;-79
2021/12/24 19:53:10;;;;;;;11.90;7.32;;;;;;;0.87;97.22;97800.19;8389802;28;20056;-79
2021/12/24 19:57:12;;;;;;;10.82;7.00;;;;;;;0.90;97.15;97788.97;8389894;28;20052;-80
2021/12/24 20:01:13;;;;;;;15.18;7.95;;;;;;;0.87;96.53;97810.81;8389943;28;20044;-80
2021/12/24 20:05:15;;;;;;;16.08;8.93;;;;;;;0.81;96.98;97811.91;8426942;28;20051;-79
2021/12/24 20:09:16;;;;;;;12.70;6.90;;;;;;;0.82;97.38;97840.09;8451009;28;20087;-80
2021/12/24 20:13:17;;;;;;;14.10;7.63;;;;;;;0.76;97.68;97846.50;8473214;27;20064;-80
2021/12/24 20:17:18;;;;;;;13.57;7.63;;;;;;;0.81;97.42;97839.28;8461055;28;20023;-80
2021/12/24 20:21:19;;;;;;;13.90;7.18;;;;;;;0.80;96.97;97858.16;8462531;28;20065;-78
2021/12/24 20:25:20;;;;;;;18.30;9.27;;;;;;;0.74;97.57;97864.59;8462638;28;20051;-79